VVPB/HUI METAR and TAF weather

Enter ICAO airport designator
Station Type Date Time Source
VVPB METAR 2020/06/05 11:30 UTC NOAA

VVPB 051130Z 23002KT 9999 FEW020 SCT050 31/26 Q1006 NOSIG


Station Type Date Time Source
VVPB Decoded METAR 2020/06/05 11:30 UTC NOAA

Hue, Vietnam (VVPB) 16-24N 107-41E 17M
Jun 05, 2020 - 07:30 AM EDT / 2020.06.05 1130 UTC
Wind: from the SW (230 degrees) at 2 MPH (2 KT):0
Visibility: greater than 7 mile(s):0
Sky conditions: partly cloudy
Temperature: 87 F (31 C)
Heat index: 99.7 F (37.6 C):1
Dew Point: 78 F (26 C)
Relative Humidity: 74%
Pressure (altimeter): 29.71 in. Hg (1006 hPa)
ob: VVPB 051130Z 23002KT 9999 FEW020 SCT050 31/26 Q1006 NOSIG
cycle: 11

Station Type Date Time Source
VVPB TAF 2020/06/05 12:00 UTC NOAA

TAF VVPB 051100Z 0512/0612 24008KT 9999 FEW017
TEMPO 0608/0612 TS FEW015 FEW017CB SCT060

Example: see airport list